sensor_id;sensor_type;location;lat;lon;timestamp;temperature;humidity
40816;DHT22;26535;48.788;9.214;2022-08-19T05:03:41;20.40;99.70
40816;DHT22;26535;48.788;9.214;2022-08-19T05:06:09;20.50;99.60
40816;DHT22;26535;48.788;9.214;2022-08-19T05:08:36;20.50;99.50
40816;DHT22;26535;48.788;9.214;2022-08-19T05:13:37;20.50;99.50
40816;DHT22;26535;48.788;9.214;2022-08-19T05:16:03;20.60;99.30
40816;DHT22;26535;48.788;9.214;2022-08-19T05:18:29;20.60;99.40
40816;DHT22;26535;48.788;9.214;2022-08-19T05:21:17;20.60;99.50
40816;DHT22;26535;48.788;9.214;2022-08-19T05:24:02;20.60;99.40
40816;DHT22;26535;48.788;9.214;2022-08-19T05:26:28;20.50;99.30
40816;DHT22;26535;48.788;9.214;2022-08-19T05:28:54;20.60;99.50
40816;DHT22;26535;48.788;9.214;2022-08-19T05:31:21;20.60;99.50
40816;DHT22;26535;48.788;9.214;2022-08-19T05:33:47;20.70;99.30
40816;DHT22;26535;48.788;9.214;2022-08-19T05:36:13;20.60;99.40
40816;DHT22;26535;48.788;9.214;2022-08-19T05:38:39;20.70;99.30
40816;DHT22;26535;48.788;9.214;2022-08-19T05:41:09;20.60;99.50
40816;DHT22;26535;48.788;9.214;2022-08-19T05:43:36;20.60;99.50
40816;DHT22;26535;48.788;9.214;2022-08-19T05:46:03;20.50;99.80
40816;DHT22;26535;48.788;9.214;2022-08-19T05:48:33;20.60;99.90
40816;DHT22;26535;48.788;9.214;2022-08-19T05:51:06;20.60;99.90
40816;DHT22;26535;48.788;9.214;2022-08-19T05:53:34;20.70;99.80
40816;DHT22;26535;48.788;9.214;2022-08-19T05:56:09;20.60;99.80
40816;DHT22;26535;48.788;9.214;2022-08-19T05:58:36;20.70;99.90
40816;DHT22;26535;48.788;9.214;2022-08-19T06:01:03;20.60;99.90
40816;DHT22;26535;48.788;9.214;2022-08-19T06:03:32;20.60;99.90
40816;DHT22;26535;48.788;9.214;2022-08-19T06:05:59;20.70;99.80
40816;DHT22;26535;48.788;9.214;2022-08-19T06:08:28;20.70;99.60
40816;DHT22;26535;48.788;9.214;2022-08-19T06:10:55;20.80;99.50
40816;DHT22;26535;48.788;9.214;2022-08-19T06:13:21;20.70;99.80
40816;DHT22;26535;48.788;9.214;2022-08-19T06:15:48;20.70;99.80
40816;DHT22;26535;48.788;9.214;2022-08-19T06:18:15;20.70;99.90
40816;DHT22;26535;48.788;9.214;2022-08-19T06:20:44;20.70;99.80
40816;DHT22;26535;48.788;9.214;2022-08-19T06:23:09;20.80;99.80
40816;DHT22;26535;48.788;9.214;2022-08-19T06:25:35;20.70;99.90
40816;DHT22;26535;48.788;9.214;2022-08-19T06:28:01;20.80;99.90
40816;DHT22;26535;48.788;9.214;2022-08-19T06:30:27;20.80;99.90
40816;DHT22;26535;48.788;9.214;2022-08-19T06:32:53;20.70;99.90
40816;DHT22;26535;48.788;9.214;2022-08-19T06:35:19;20.70;99.90
40816;DHT22;26535;48.788;9.214;2022-08-19T06:37:45;20.60;99.90
40816;DHT22;26535;48.788;9.214;2022-08-19T06:40:11;20.60;99.90
40816;DHT22;26535;48.788;9.214;2022-08-19T06:42:40;20.60;99.90
40816;DHT22;26535;48.788;9.214;2022-08-19T06:45:07;20.60;99.90
40816;DHT22;26535;48.788;9.214;2022-08-19T06:47:34;20.50;99.90
40816;DHT22;26535;48.788;9.214;2022-08-19T06:50:00;20.50;99.90
40816;DHT22;26535;48.788;9.214;2022-08-19T06:52:34;20.50;99.90
40816;DHT22;26535;48.788;9.214;2022-08-19T06:55:07;20.50;99.90
40816;DHT22;26535;48.788;9.214;2022-08-19T06:57:33;20.50;99.90
40816;DHT22;26535;48.788;9.214;2022-08-19T06:59:59;20.40;99.90
40816;DHT22;26535;48.788;9.214;2022-08-19T07:02:25;20.50;99.90
40816;DHT22;26535;48.788;9.214;2022-08-19T07:04:52;20.60;99.90
40816;DHT22;26535;48.788;9.214;2022-08-19T07:07:20;20.60;99.90
40816;DHT22;26535;48.788;9.214;2022-08-19T07:09:46;20.60;99.90
40816;DHT22;26535;48.788;9.214;2022-08-19T07:12:13;20.70;99.90
40816;DHT22;26535;48.788;9.214;2022-08-19T07:14:42;20.70;99.90
40816;DHT22;26535;48.788;9.214;2022-08-19T07:17:10;20.70;99.90
40816;DHT22;26535;48.788;9.214;2022-08-19T07:19:37;20.70;99.90
40816;DHT22;26535;48.788;9.214;2022-08-19T07:22:05;20.70;99.90
40816;DHT22;26535;48.788;9.214;2022-08-19T07:24:32;20.70;99.90
40816;DHT22;26535;48.788;9.214;2022-08-19T07:27:00;20.70;99.90
40816;DHT22;26535;48.788;9.214;2022-08-19T07:29:29;20.70;99.90
40816;DHT22;26535;48.788;9.214;2022-08-19T07:31:56;20.70;99.90
40816;DHT22;26535;48.788;9.214;2022-08-19T07:34:30;20.70;99.90
40816;DHT22;26535;48.788;9.214;2022-08-19T07:36:56;20.70;99.90
40816;DHT22;26535;48.788;9.214;2022-08-19T07:39:26;20.70;99.90
40816;DHT22;26535;48.788;9.214;2022-08-19T07:41:52;20.60;99.90
40816;DHT22;26535;48.788;9.214;2022-08-19T07:44:19;20.60;99.90
40816;DHT22;26535;48.788;9.214;2022-08-19T07:46:49;20.70;99.90
40816;DHT22;26535;48.788;9.214;2022-08-19T07:49:16;20.60;99.90
40816;DHT22;26535;48.788;9.214;2022-08-19T07:52:10;20.70;99.90
40816;DHT22;26535;48.788;9.214;2022-08-19T07:54:37;20.60;99.90
40816;DHT22;26535;48.788;9.214;2022-08-19T07:57:07;20.60;99.90
40816;DHT22;26535;48.788;9.214;2022-08-19T07:59:36;20.70;99.90
40816;DHT22;26535;48.788;9.214;2022-08-19T08:02:02;20.70;99.90
40816;DHT22;26535;48.788;9.214;2022-08-19T08:04:30;20.60;99.90
40816;DHT22;26535;48.788;9.214;2022-08-19T08:07:15;20.60;99.90
40816;DHT22;26535;48.788;9.214;2022-08-19T08:10:00;20.60;99.90
40816;DHT22;26535;48.788;9.214;2022-08-19T08:12:33;20.50;99.90
40816;DHT22;26535;48.788;9.214;2022-08-19T08:15:02;20.40;99.90
40816;DHT22;26535;48.788;9.214;2022-08-19T08:17:32;20.30;99.90
40816;DHT22;26535;48.788;9.214;2022-08-19T08:19:58;20.20;99.90
40816;DHT22;26535;48.788;9.214;2022-08-19T08:22:25;20.20;99.90
40816;DHT22;26535;48.788;9.214;2022-08-19T08:25:16;20.20;99.90
40816;DHT22;26535;48.788;9.214;2022-08-19T08:33:23;20.20;99.90
40816;DHT22;26535;48.788;9.214;2022-08-19T08:35:49;20.30;99.90
40816;DHT22;26535;48.788;9.214;2022-08-19T08:38:16;20.30;99.90
40816;DHT22;26535;48.788;9.214;2022-08-19T08:40:52;20.30;99.90
40816;DHT22;26535;48.788;9.214;2022-08-19T08:43:27;20.40;99.90
40816;DHT22;26535;48.788;9.214;2022-08-19T08:46:04;20.40;99.90
40816;DHT22;26535;48.788;9.214;2022-08-19T08:48:38;20.30;99.90
40816;DHT22;26535;48.788;9.214;2022-08-19T08:51:12;20.40;99.90
40816;DHT22;26535;48.788;9.214;2022-08-19T08:53:40;20.60;99.90
40816;DHT22;26535;48.788;9.214;2022-08-19T08:56:09;20.70;99.90
40816;DHT22;26535;48.788;9.214;2022-08-19T09:01:10;21.20;99.90
40816;DHT22;26535;48.788;9.214;2022-08-19T09:03:37;21.40;99.90
40816;DHT22;26535;48.788;9.214;2022-08-19T09:11:34;21.60;99.90
40816;DHT22;26535;48.788;9.214;2022-08-19T09:17:09;21.90;99.90
40816;DHT22;26535;48.788;9.214;2022-08-19T09:19:59;21.90;99.90
40816;DHT22;26535;48.788;9.214;2022-08-19T09:22:30;21.90;99.90
40816;DHT22;26535;48.788;9.214;2022-08-19T09:24:56;21.90;99.90
40816;DHT22;26535;48.788;9.214;2022-08-19T09:27:23;21.70;99.90
40816;DHT22;26535;48.788;9.214;2022-08-19T09:29:50;21.70;99.90
40816;DHT22;26535;48.788;9.214;2022-08-19T09:32:16;21.60;99.90
40816;DHT22;26535;48.788;9.214;2022-08-19T09:34:43;21.60;99.90
40816;DHT22;26535;48.788;9.214;2022-08-19T09:37:10;21.60;99.90
40816;DHT22;26535;48.788;9.214;2022-08-19T09:39:37;21.60;99.90
40816;DHT22;26535;48.788;9.214;2022-08-19T09:42:03;21.60;99.90
40816;DHT22;26535;48.788;9.214;2022-08-19T09:44:30;21.60;99.90
40816;DHT22;26535;48.788;9.214;2022-08-19T09:46:55;21.70;99.90
40816;DHT22;26535;48.788;9.214;2022-08-19T09:49:22;21.70;99.90
40816;DHT22;26535;48.788;9.214;2022-08-19T09:51:52;21.80;99.90
40816;DHT22;26535;48.788;9.214;2022-08-19T09:54:19;21.90;99.90
40816;DHT22;26535;48.788;9.214;2022-08-19T09:56:45;21.90;99.90
40816;DHT22;26535;48.788;9.214;2022-08-19T09:59:10;21.90;99.90
40816;DHT22;26535;48.788;9.214;2022-08-19T10:01:37;21.90;99.90
40816;DHT22;26535;48.788;9.214;2022-08-19T10:04:04;21.80;99.90
40816;DHT22;26535;48.788;9.214;2022-08-19T10:06:35;21.90;99.90
40816;DHT22;26535;48.788;9.214;2022-08-19T10:09:02;21.90;99.90
40816;DHT22;26535;48.788;9.214;2022-08-19T10:11:29;21.90;99.90
40816;DHT22;26535;48.788;9.214;2022-08-19T10:13:55;22.00;99.90
40816;DHT22;26535;48.788;9.214;2022-08-19T10:16:22;21.90;99.90
40816;DHT22;26535;48.788;9.214;2022-08-19T10:18:49;22.00;99.90
40816;DHT22;26535;48.788;9.214;2022-08-19T10:21:18;22.10;99.90
40816;DHT22;26535;48.788;9.214;2022-08-19T10:23:47;22.10;99.90
40816;DHT22;26535;48.788;9.214;2022-08-19T10:26:17;22.10;99.90
40816;DHT22;26535;48.788;9.214;2022-08-19T10:28:43;22.20;99.90
40816;DHT22;26535;48.788;9.214;2022-08-19T10:31:21;22.20;99.90
40816;DHT22;26535;48.788;9.214;2022-08-19T10:33:49;22.20;99.90
40816;DHT22;26535;48.788;9.214;2022-08-19T10:36:21;22.20;99.90
40816;DHT22;26535;48.788;9.214;2022-08-19T10:38:54;22.30;99.90
40816;DHT22;26535;48.788;9.214;2022-08-19T10:41:26;22.40;99.90
40816;DHT22;26535;48.788;9.214;2022-08-19T10:43:57;22.60;99.90
40816;DHT22;26535;48.788;9.214;2022-08-19T10:46:25;22.60;99.90
40816;DHT22;26535;48.788;9.214;2022-08-19T10:48:52;22.80;99.90
40816;DHT22;26535;48.788;9.214;2022-08-19T10:51:18;23.00;99.90
40816;DHT22;26535;48.788;9.214;2022-08-19T10:54:03;23.10;99.90
40816;DHT22;26535;48.788;9.214;2022-08-19T10:56:29;23.30;98.40
40816;DHT22;26535;48.788;9.214;2022-08-19T10:59:16;23.30;98.60
40816;DHT22;26535;48.788;9.214;2022-08-19T11:01:45;23.20;98.50
40816;DHT22;26535;48.788;9.214;2022-08-19T11:04:11;23.20;98.90
40816;DHT22;26535;48.788;9.214;2022-08-19T11:06:42;23.20;97.80
40816;DHT22;26535;48.788;9.214;2022-08-19T11:09:09;23.10;98.00
40816;DHT22;26535;48.788;9.214;2022-08-19T11:11:37;23.00;97.10
40816;DHT22;26535;48.788;9.214;2022-08-19T11:14:07;23.00;96.90
40816;DHT22;26535;48.788;9.214;2022-08-19T11:16:34;23.00;97.10
40816;DHT22;26535;48.788;9.214;2022-08-19T11:19:00;23.00;96.40
40816;DHT22;26535;48.788;9.214;2022-08-19T11:21:29;23.10;96.30
40816;DHT22;26535;48.788;9.214;2022-08-19T11:23:59;23.20;95.50
40816;DHT22;26535;48.788;9.214;2022-08-19T11:26:28;23.30;94.80
40816;DHT22;26535;48.788;9.214;2022-08-19T11:28:55;23.40;95.40
40816;DHT22;26535;48.788;9.214;2022-08-19T11:31:25;23.50;95.00
40816;DHT22;26535;48.788;9.214;2022-08-19T11:33:51;23.60;95.80
40816;DHT22;26535;48.788;9.214;2022-08-19T11:36:20;23.70;95.00
40816;DHT22;26535;48.788;9.214;2022-08-19T11:38:47;23.70;96.40
40816;DHT22;26535;48.788;9.214;2022-08-19T11:41:16;23.70;98.00
40816;DHT22;26535;48.788;9.214;2022-08-19T11:43:42;23.80;98.10
40816;DHT22;26535;48.788;9.214;2022-08-19T11:46:12;23.70;98.40
40816;DHT22;26535;48.788;9.214;2022-08-19T11:48:39;23.70;99.00
40816;DHT22;26535;48.788;9.214;2022-08-19T11:51:07;23.60;99.50
40816;DHT22;26535;48.788;9.214;2022-08-19T11:53:34;23.50;99.70
40816;DHT22;26535;48.788;9.214;2022-08-19T11:56:00;23.40;99.90
40816;DHT22;26535;48.788;9.214;2022-08-19T11:58:27;23.20;99.90
40816;DHT22;26535;48.788;9.214;2022-08-19T12:00:52;23.20;99.90
40816;DHT22;26535;48.788;9.214;2022-08-19T12:03:18;23.20;99.90
40816;DHT22;26535;48.788;9.214;2022-08-19T12:05:45;23.20;99.90
40816;DHT22;26535;48.788;9.214;2022-08-19T12:08:17;23.00;99.90
40816;DHT22;26535;48.788;9.214;2022-08-19T12:10:52;22.90;99.90
40816;DHT22;26535;48.788;9.214;2022-08-19T12:13:18;22.70;99.90
40816;DHT22;26535;48.788;9.214;2022-08-19T12:15:46;22.70;99.90
40816;DHT22;26535;48.788;9.214;2022-08-19T12:18:12;22.70;99.90
40816;DHT22;26535;48.788;9.214;2022-08-19T12:20:41;22.60;99.90
40816;DHT22;26535;48.788;9.214;2022-08-19T12:23:08;22.50;99.90
40816;DHT22;26535;48.788;9.214;2022-08-19T12:25:36;22.50;99.90
40816;DHT22;26535;48.788;9.214;2022-08-19T12:28:03;22.40;99.90
40816;DHT22;26535;48.788;9.214;2022-08-19T12:30:29;22.30;99.90
40816;DHT22;26535;48.788;9.214;2022-08-19T12:32:54;22.30;99.90
40816;DHT22;26535;48.788;9.214;2022-08-19T12:35:20;22.30;99.90
40816;DHT22;26535;48.788;9.214;2022-08-19T12:37:47;22.20;99.90
40816;DHT22;26535;48.788;9.214;2022-08-19T12:40:15;22.20;99.90
40816;DHT22;26535;48.788;9.214;2022-08-19T12:42:41;22.20;99.90
40816;DHT22;26535;48.788;9.214;2022-08-19T12:45:09;22.20;99.90
40816;DHT22;26535;48.788;9.214;2022-08-19T12:47:35;22.20;99.90
40816;DHT22;26535;48.788;9.214;2022-08-19T12:50:01;22.30;99.90
40816;DHT22;26535;48.788;9.214;2022-08-19T12:52:27;22.20;99.90
40816;DHT22;26535;48.788;9.214;2022-08-19T12:54:56;22.40;99.90
40816;DHT22;26535;48.788;9.214;2022-08-19T12:57:25;22.60;99.90
40816;DHT22;26535;48.788;9.214;2022-08-19T12:59:54;22.80;99.90
40816;DHT22;26535;48.788;9.214;2022-08-19T13:02:20;23.10;99.90
40816;DHT22;26535;48.788;9.214;2022-08-19T13:04:46;23.20;99.90
40816;DHT22;26535;48.788;9.214;2022-08-19T13:07:13;23.40;99.90
40816;DHT22;26535;48.788;9.214;2022-08-19T13:09:40;23.40;99.90
40816;DHT22;26535;48.788;9.214;2022-08-19T13:12:08;23.30;99.90
40816;DHT22;26535;48.788;9.214;2022-08-19T13:14:39;23.20;99.90
40816;DHT22;26535;48.788;9.214;2022-08-19T13:17:06;23.00;99.90
40816;DHT22;26535;48.788;9.214;2022-08-19T13:19:32;22.70;99.90
40816;DHT22;26535;48.788;9.214;2022-08-19T13:21:58;22.60;99.90
40816;DHT22;26535;48.788;9.214;2022-08-19T13:24:24;22.30;99.90
40816;DHT22;26535;48.788;9.214;2022-08-19T13:26:53;22.30;99.90
40816;DHT22;26535;48.788;9.214;2022-08-19T13:29:19;22.20;99.90
40816;DHT22;26535;48.788;9.214;2022-08-19T13:32:04;22.00;99.90
40816;DHT22;26535;48.788;9.214;2022-08-19T13:34:48;21.80;99.90
40816;DHT22;26535;48.788;9.214;2022-08-19T13:37:14;21.70;99.90
40816;DHT22;26535;48.788;9.214;2022-08-19T13:39:40;21.60;99.90
40816;DHT22;26535;48.788;9.214;2022-08-19T13:42:05;21.50;99.90
40816;DHT22;26535;48.788;9.214;2022-08-19T13:44:35;21.50;99.90
40816;DHT22;26535;48.788;9.214;2022-08-19T13:47:04;21.50;99.90
40816;DHT22;26535;48.788;9.214;2022-08-19T13:49:35;21.40;99.90
40816;DHT22;26535;48.788;9.214;2022-08-19T13:52:02;21.40;99.90
40816;DHT22;26535;48.788;9.214;2022-08-19T13:54:28;21.40;99.90
40816;DHT22;26535;48.788;9.214;2022-08-19T13:56:57;21.20;99.90
40816;DHT22;26535;48.788;9.214;2022-08-19T13:59:22;21.10;99.90
40816;DHT22;26535;48.788;9.214;2022-08-19T14:01:48;21.20;99.90
40816;DHT22;26535;48.788;9.214;2022-08-19T14:04:15;21.30;99.90
40816;DHT22;26535;48.788;9.214;2022-08-19T14:06:41;21.30;99.90
40816;DHT22;26535;48.788;9.214;2022-08-19T14:09:06;21.40;99.90
40816;DHT22;26535;48.788;9.214;2022-08-19T14:11:33;21.40;99.90
40816;DHT22;26535;48.788;9.214;2022-08-19T14:13:58;21.40;99.90
40816;DHT22;26535;48.788;9.214;2022-08-19T14:16:24;21.30;99.90
40816;DHT22;26535;48.788;9.214;2022-08-19T14:18:50;21.20;99.90
40816;DHT22;26535;48.788;9.214;2022-08-19T14:21:22;21.40;99.90
40816;DHT22;26535;48.788;9.214;2022-08-19T14:23:49;21.50;99.90
40816;DHT22;26535;48.788;9.214;2022-08-19T14:26:17;21.70;99.90
40816;DHT22;26535;48.788;9.214;2022-08-19T14:28:43;21.70;99.90
40816;DHT22;26535;48.788;9.214;2022-08-19T14:31:13;21.80;99.90
40816;DHT22;26535;48.788;9.214;2022-08-19T14:33:46;22.00;99.90
40816;DHT22;26535;48.788;9.214;2022-08-19T14:36:12;22.10;99.90
40816;DHT22;26535;48.788;9.214;2022-08-19T14:38:38;22.20;99.90
40816;DHT22;26535;48.788;9.214;2022-08-19T14:41:14;22.30;99.90
40816;DHT22;26535;48.788;9.214;2022-08-19T14:43:43;22.60;99.90
40816;DHT22;26535;48.788;9.214;2022-08-19T14:46:19;22.70;99.90
40816;DHT22;26535;48.788;9.214;2022-08-19T14:48:49;22.90;99.90
40816;DHT22;26535;48.788;9.214;2022-08-19T14:51:18;23.10;99.90
40816;DHT22;26535;48.788;9.214;2022-08-19T14:53:45;23.20;99.90
40816;DHT22;26535;48.788;9.214;2022-08-19T14:56:16;23.20;99.90
40816;DHT22;26535;48.788;9.214;2022-08-19T14:58:45;23.10;99.90
40816;DHT22;26535;48.788;9.214;2022-08-19T15:01:11;23.10;99.90
40816;DHT22;26535;48.788;9.214;2022-08-19T15:03:41;23.00;99.90
40816;DHT22;26535;48.788;9.214;2022-08-19T15:06:07;23.00;99.90
40816;DHT22;26535;48.788;9.214;2022-08-19T15:08:35;23.00;99.90
40816;DHT22;26535;48.788;9.214;2022-08-19T15:11:03;23.20;99.90
40816;DHT22;26535;48.788;9.214;2022-08-19T15:13:32;23.40;99.90
40816;DHT22;26535;48.788;9.214;2022-08-19T15:15:58;23.80;99.90
40816;DHT22;26535;48.788;9.214;2022-08-19T15:18:24;24.20;99.90
40816;DHT22;26535;48.788;9.214;2022-08-19T15:20:59;24.70;99.90
40816;DHT22;26535;48.788;9.214;2022-08-19T15:23:34;24.90;99.90
40816;DHT22;26535;48.788;9.214;2022-08-19T15:26:07;25.10;99.90
40816;DHT22;26535;48.788;9.214;2022-08-19T15:28:34;25.00;99.90
40816;DHT22;26535;48.788;9.214;2022-08-19T15:31:00;25.00;99.60
40816;DHT22;26535;48.788;9.214;2022-08-19T15:33:27;24.60;99.90
40816;DHT22;26535;48.788;9.214;2022-08-19T15:36:00;24.20;99.90
40816;DHT22;26535;48.788;9.214;2022-08-19T15:38:26;24.30;99.90
40816;DHT22;26535;48.788;9.214;2022-08-19T15:40:52;24.20;99.90
40816;DHT22;26535;48.788;9.214;2022-08-19T15:43:19;24.30;99.90
40816;DHT22;26535;48.788;9.214;2022-08-19T15:45:46;24.40;99.90
40816;DHT22;26535;48.788;9.214;2022-08-19T15:48:12;24.70;99.90
40816;DHT22;26535;48.788;9.214;2022-08-19T15:50:38;24.90;99.90
40816;DHT22;26535;48.788;9.214;2022-08-19T15:53:09;25.20;99.90
40816;DHT22;26535;48.788;9.214;2022-08-19T15:55:41;25.60;98.40
40816;DHT22;26535;48.788;9.214;2022-08-19T15:58:10;25.70;97.60
40816;DHT22;26535;48.788;9.214;2022-08-19T16:00:55;25.90;96.80
40816;DHT22;26535;48.788;9.214;2022-08-19T16:03:39;26.20;95.80
40816;DHT22;26535;48.788;9.214;2022-08-19T16:06:23;26.00;95.20
40816;DHT22;26535;48.788;9.214;2022-08-19T16:08:57;25.80;95.50
40816;DHT22;26535;48.788;9.214;2022-08-19T16:11:28;25.80;95.40
40816;DHT22;26535;48.788;9.214;2022-08-19T16:13:58;25.50;95.60
40816;DHT22;26535;48.788;9.214;2022-08-19T16:16:33;25.00;96.60
40816;DHT22;26535;48.788;9.214;2022-08-19T16:19:05;24.90;97.20
40816;DHT22;26535;48.788;9.214;2022-08-19T16:21:32;25.50;95.90
40816;DHT22;26535;48.788;9.214;2022-08-19T16:24:10;25.80;95.00
40816;DHT22;26535;48.788;9.214;2022-08-19T16:26:40;26.10;94.30
40816;DHT22;26535;48.788;9.214;2022-08-19T16:29:07;26.20;93.40
40816;DHT22;26535;48.788;9.214;2022-08-19T16:31:33;26.00;93.30
40816;DHT22;26535;48.788;9.214;2022-08-19T16:33:59;25.70;93.70
40816;DHT22;26535;48.788;9.214;2022-08-19T16:36:25;25.60;93.90
40816;DHT22;26535;48.788;9.214;2022-08-19T16:38:52;25.50;94.10
40816;DHT22;26535;48.788;9.214;2022-08-19T16:41:19;25.30;94.40
40816;DHT22;26535;48.788;9.214;2022-08-19T16:43:45;25.00;95.00
40816;DHT22;26535;48.788;9.214;2022-08-19T16:46:11;24.30;96.90
40816;DHT22;26535;48.788;9.214;2022-08-19T16:48:38;24.00;98.20
40816;DHT22;26535;48.788;9.214;2022-08-19T16:51:12;23.80;99.10
40816;DHT22;26535;48.788;9.214;2022-08-19T16:53:39;23.40;99.90
40816;DHT22;26535;48.788;9.214;2022-08-19T16:56:06;23.10;99.90
40816;DHT22;26535;48.788;9.214;2022-08-19T16:58:33;22.90;99.90
40816;DHT22;26535;48.788;9.214;2022-08-19T17:01:01;22.70;99.90
40816;DHT22;26535;48.788;9.214;2022-08-19T17:03:27;22.70;99.90
40816;DHT22;26535;48.788;9.214;2022-08-19T17:05:56;22.80;99.90
40816;DHT22;26535;48.788;9.214;2022-08-19T17:08:24;22.90;99.90
40816;DHT22;26535;48.788;9.214;2022-08-19T17:10:53;22.80;99.90
40816;DHT22;26535;48.788;9.214;2022-08-19T17:13:19;22.70;99.90
40816;DHT22;26535;48.788;9.214;2022-08-19T17:15:46;22.60;99.90
40816;DHT22;26535;48.788;9.214;2022-08-19T17:18:13;22.50;99.90
40816;DHT22;26535;48.788;9.214;2022-08-19T17:20:40;22.30;99.90
40816;DHT22;26535;48.788;9.214;2022-08-19T17:23:06;22.10;99.90
40816;DHT22;26535;48.788;9.214;2022-08-19T17:25:33;22.00;99.90
40816;DHT22;26535;48.788;9.214;2022-08-19T17:28:11;21.90;99.90
40816;DHT22;26535;48.788;9.214;2022-08-19T17:30:37;21.80;99.90
40816;DHT22;26535;48.788;9.214;2022-08-19T17:33:03;21.70;99.90
40816;DHT22;26535;48.788;9.214;2022-08-19T17:35:29;21.70;99.90
40816;DHT22;26535;48.788;9.214;2022-08-19T17:37:55;21.60;99.90
40816;DHT22;26535;48.788;9.214;2022-08-19T17:40:23;21.60;99.90
40816;DHT22;26535;48.788;9.214;2022-08-19T17:42:50;21.60;99.90
40816;DHT22;26535;48.788;9.214;2022-08-19T17:45:17;21.50;99.90
40816;DHT22;26535;48.788;9.214;2022-08-19T17:47:45;21.50;99.90
40816;DHT22;26535;48.788;9.214;2022-08-19T17:50:11;21.40;99.90
40816;DHT22;26535;48.788;9.214;2022-08-19T17:52:38;21.40;99.90
40816;DHT22;26535;48.788;9.214;2022-08-19T17:55:05;21.40;99.90
40816;DHT22;26535;48.788;9.214;2022-08-19T17:57:32;21.40;99.90
40816;DHT22;26535;48.788;9.214;2022-08-19T17:59:58;21.40;99.90
40816;DHT22;26535;48.788;9.214;2022-08-19T18:02:24;21.40;99.90
40816;DHT22;26535;48.788;9.214;2022-08-19T18:04:49;21.30;99.90
40816;DHT22;26535;48.788;9.214;2022-08-19T18:07:16;21.20;99.90
40816;DHT22;26535;48.788;9.214;2022-08-19T18:09:46;21.20;99.90
40816;DHT22;26535;48.788;9.214;2022-08-19T18:12:24;21.20;99.90
40816;DHT22;26535;48.788;9.214;2022-08-19T18:14:53;21.20;99.90
40816;DHT22;26535;48.788;9.214;2022-08-19T18:17:19;21.20;99.90
40816;DHT22;26535;48.788;9.214;2022-08-19T18:19:47;21.20;99.90
40816;DHT22;26535;48.788;9.214;2022-08-19T18:22:34;21.10;99.90
40816;DHT22;26535;48.788;9.214;2022-08-19T18:25:10;21.00;99.90
40816;DHT22;26535;48.788;9.214;2022-08-19T18:27:37;20.90;99.90
40816;DHT22;26535;48.788;9.214;2022-08-19T18:30:06;20.90;99.90
40816;DHT22;26535;48.788;9.214;2022-08-19T18:32:32;20.90;99.90
40816;DHT22;26535;48.788;9.214;2022-08-19T18:35:06;20.80;99.90
40816;DHT22;26535;48.788;9.214;2022-08-19T18:37:37;20.70;99.90
40816;DHT22;26535;48.788;9.214;2022-08-19T18:40:08;20.70;99.90
40816;DHT22;26535;48.788;9.214;2022-08-19T18:42:53;20.70;99.90
40816;DHT22;26535;48.788;9.214;2022-08-19T18:45:38;20.60;99.90
40816;DHT22;26535;48.788;9.214;2022-08-19T18:48:23;20.60;99.90
40816;DHT22;26535;48.788;9.214;2022-08-19T18:51:08;20.50;99.90
40816;DHT22;26535;48.788;9.214;2022-08-19T18:53:37;20.40;99.90
40816;DHT22;26535;48.788;9.214;2022-08-19T18:56:04;20.30;99.90
40816;DHT22;26535;48.788;9.214;2022-08-19T18:58:31;20.30;99.90
40816;DHT22;26535;48.788;9.214;2022-08-19T19:01:08;20.30;99.90
40816;DHT22;26535;48.788;9.214;2022-08-19T19:03:43;20.30;99.90
40816;DHT22;26535;48.788;9.214;2022-08-19T19:06:12;20.30;99.90
40816;DHT22;26535;48.788;9.214;2022-08-19T19:08:38;20.30;99.90
40816;DHT22;26535;48.788;9.214;2022-08-19T19:11:07;20.30;99.90
40816;DHT22;26535;48.788;9.214;2022-08-19T19:13:34;20.30;99.90
40816;DHT22;26535;48.788;9.214;2022-08-19T19:16:00;20.30;99.90
40816;DHT22;26535;48.788;9.214;2022-08-19T19:18:27;20.30;99.90
40816;DHT22;26535;48.788;9.214;2022-08-19T19:20:54;20.30;99.90
40816;DHT22;26535;48.788;9.214;2022-08-19T19:23:21;20.30;99.90
40816;DHT22;26535;48.788;9.214;2022-08-19T19:25:47;20.30;99.90
40816;DHT22;26535;48.788;9.214;2022-08-19T19:28:15;20.20;99.90
40816;DHT22;26535;48.788;9.214;2022-08-19T19:30:59;20.20;99.90
40816;DHT22;26535;48.788;9.214;2022-08-19T19:33:29;20.20;99.90
40816;DHT22;26535;48.788;9.214;2022-08-19T19:35:55;20.20;99.90
40816;DHT22;26535;48.788;9.214;2022-08-19T19:38:22;20.30;99.90
40816;DHT22;26535;48.788;9.214;2022-08-19T19:40:48;20.30;99.90
40816;DHT22;26535;48.788;9.214;2022-08-19T19:43:17;20.30;99.90
40816;DHT22;26535;48.788;9.214;2022-08-19T19:45:47;20.30;99.90
40816;DHT22;26535;48.788;9.214;2022-08-19T19:48:14;20.30;99.90
40816;DHT22;26535;48.788;9.214;2022-08-19T19:50:42;20.30;99.90
40816;DHT22;26535;48.788;9.214;2022-08-19T19:53:12;20.30;99.90
40816;DHT22;26535;48.788;9.214;2022-08-19T19:55:40;20.20;99.90
40816;DHT22;26535;48.788;9.214;2022-08-19T19:58:07;20.20;99.90
40816;DHT22;26535;48.788;9.214;2022-08-19T20:00:33;20.20;99.90
40816;DHT22;26535;48.788;9.214;2022-08-19T20:02:59;20.20;99.90
40816;DHT22;26535;48.788;9.214;2022-08-19T20:05:25;20.20;99.90
40816;DHT22;26535;48.788;9.214;2022-08-19T20:07:52;20.20;99.90
40816;DHT22;26535;48.788;9.214;2022-08-19T20:10:38;20.20;99.90
40816;DHT22;26535;48.788;9.214;2022-08-19T20:13:04;20.20;99.90
40816;DHT22;26535;48.788;9.214;2022-08-19T20:15:31;20.20;99.90
40816;DHT22;26535;48.788;9.214;2022-08-19T20:17:58;20.20;99.90
40816;DHT22;26535;48.788;9.214;2022-08-19T20:20:24;20.20;99.90
40816;DHT22;26535;48.788;9.214;2022-08-19T20:22:50;20.20;99.90
40816;DHT22;26535;48.788;9.214;2022-08-19T20:25:17;20.20;99.90
40816;DHT22;26535;48.788;9.214;2022-08-19T20:27:44;20.20;99.90
40816;DHT22;26535;48.788;9.214;2022-08-19T20:30:13;20.20;99.90
40816;DHT22;26535;48.788;9.214;2022-08-19T20:32:41;20.20;99.90
40816;DHT22;26535;48.788;9.214;2022-08-19T20:35:09;20.30;99.90
40816;DHT22;26535;48.788;9.214;2022-08-19T20:37:35;20.30;99.90
40816;DHT22;26535;48.788;9.214;2022-08-19T20:40:03;20.30;99.90
40816;DHT22;26535;48.788;9.214;2022-08-19T20:42:29;20.30;99.90
40816;DHT22;26535;48.788;9.214;2022-08-19T20:44:55;20.30;99.90
40816;DHT22;26535;48.788;9.214;2022-08-19T20:47:21;20.20;99.90
40816;DHT22;26535;48.788;9.214;2022-08-19T20:49:49;20.20;99.90
40816;DHT22;26535;48.788;9.214;2022-08-19T20:52:16;20.20;99.90
40816;DHT22;26535;48.788;9.214;2022-08-19T20:54:42;20.20;99.90
40816;DHT22;26535;48.788;9.214;2022-08-19T20:57:08;20.20;99.90
40816;DHT22;26535;48.788;9.214;2022-08-19T20:59:33;20.20;99.90
40816;DHT22;26535;48.788;9.214;2022-08-19T21:02:02;20.20;99.90